METAR AND TAF INFORMATION
METAR FOR SKVP
ADDS - METARS form results

(0032 UTC 21 October 2018)
Data provider http://aviationweather.gov/metar/data/
 
METAR text: SKVP 210000Z 07008KT 9999 FEW015 BKN200 27/22 A2981
Conditions at: SKVP (VALLEDUPAR/ALFON, CO) observed 0000 UTC 21 October 2018
Temperature: 27.0°C (81°F)
Dewpoint: 22.0°C (72°F) [RH = 74%]
Pressure (altimeter): 29.81 inches Hg (1009.6 mb)
Winds: from the ENE (70 degrees) at 9 MPH (8 knots; 4.1 m/s)
Visibility: 6 or more miles (10+ km)
Ceiling: 20000 feet AGL
Clouds: few clouds at 1500 feet AGL
broken clouds at 20000 feet AGL
Weather: no significant weather observed at this time

 AIRPORT MAP

 RUNWAY INFORMATION
Runway 02 Runway length 6890 ft Runway width 98 ft
Runway elevation 449 ft Runway displaced threshold 0 ft Runway heading 10
Runway 20 Runway length 6890 ft Runway width 98 ft
Runway elevation 483 ft Runway displaced threshold 0 ft Runway heading 190

 AIRPORT FREQUENCIES
Type RDO Name VALLEDUPAR Frequency 348.8 MHZ
Type TWR Name TWR Frequency 118 MHZ

 AIRPORT NEAR NAVIGATION AIDS
Type NDB Name Valledupar Frequency 325 KHZ
Type VOR-DME Name Valledupar Frequency 114600 KHZ



Powered by Heron Airways VA. All Rights Reserved © 2009 [v2.6.2]